createdAt,value
2018-08-03T00:00:39.854Z,2.27
2018-08-03T00:02:44.306Z,2.40
2018-08-03T00:04:48.767Z,2.50
2018-08-03T00:06:53.236Z,2.10
2018-08-03T00:08:57.934Z,2.57
2018-08-03T00:11:02.350Z,2.30
2018-08-03T00:13:06.881Z,2.40
2018-08-03T00:15:11.379Z,2.57
2018-08-03T00:17:15.810Z,2.70
2018-08-03T00:19:20.235Z,2.30
2018-08-03T00:21:24.733Z,2.40
2018-08-03T00:23:29.135Z,2.40
2018-08-03T00:25:33.759Z,2.83
2018-08-03T00:27:38.377Z,2.40
2018-08-03T00:29:42.827Z,2.30
2018-08-03T00:31:47.286Z,2.17
2018-08-03T00:33:51.885Z,2.17
2018-08-03T00:35:56.421Z,2.40
2018-08-03T00:38:00.560Z,2.43
2018-08-03T00:40:05.174Z,2.23
2018-08-03T00:42:09.649Z,2.50
2018-08-03T00:44:14.120Z,2.57
2018-08-03T00:46:18.798Z,2.47
2018-08-03T00:48:23.234Z,2.90
2018-08-03T00:50:27.656Z,2.13
2018-08-03T00:52:32.117Z,2.20
2018-08-03T00:54:36.578Z,2.70
2018-08-03T00:56:41.005Z,2.30
2018-08-03T00:58:45.425Z,2.50
2018-08-03T01:00:51.723Z,2.70
2018-08-03T01:02:57.002Z,2.43
2018-08-03T01:05:02.492Z,2.43
2018-08-03T01:07:10.024Z,2.70
2018-08-03T01:09:16.372Z,2.60
2018-08-03T01:11:22.050Z,2.60
2018-08-03T01:13:28.391Z,2.80
2018-08-03T01:15:35.927Z,2.77
2018-08-03T01:17:41.349Z,2.40
2018-08-03T01:19:48.149Z,2.60
2018-08-03T01:21:55.356Z,2.63
2018-08-03T01:24:03.582Z,2.87
2018-08-03T01:26:09.020Z,2.77
2018-08-03T01:28:16.397Z,2.50
2018-08-03T01:30:23.578Z,2.50
2018-08-03T01:32:31.192Z,2.87
2018-08-03T01:34:38.654Z,2.60
2018-08-03T01:36:44.041Z,2.90
2018-08-03T01:38:50.733Z,2.90
2018-08-03T01:40:58.523Z,2.50
2018-08-03T01:43:05.181Z,2.63
2018-08-03T01:45:12.066Z,2.70
2018-08-03T01:47:22.432Z,2.97
2018-08-03T01:49:28.749Z,2.90
2018-08-03T01:51:36.488Z,2.67
2018-08-03T01:53:43.743Z,2.60
2018-08-03T01:55:53.053Z,2.73
2018-08-03T01:58:00.187Z,2.70
2018-08-03T02:00:07.546Z,3.07
2018-08-03T02:02:12.236Z,2.57
2018-08-03T02:04:20.147Z,3.00
2018-08-03T02:06:27.178Z,2.67
2018-08-03T02:08:32.541Z,2.67
2018-08-03T02:10:39.767Z,2.90
2018-08-03T02:12:47.557Z,3.00
2018-08-03T02:14:55.430Z,2.73
2018-08-03T02:17:03.028Z,2.83
2018-08-03T02:19:09.651Z,2.67
2018-08-03T02:21:15.193Z,2.97
2018-08-03T02:23:19.631Z,2.87
2018-08-03T02:25:24.038Z,2.67
2018-08-03T02:27:28.626Z,2.63
2018-08-03T02:29:33.070Z,2.67
2018-08-03T02:31:37.527Z,2.70
2018-08-03T02:33:42.019Z,3.17
2018-08-03T02:35:46.457Z,2.87
2018-08-03T02:37:50.914Z,2.90
2018-08-03T02:39:55.426Z,2.57
2018-08-03T02:41:59.936Z,2.70
2018-08-03T02:44:04.588Z,3.13
2018-08-03T02:46:09.034Z,2.90
2018-08-03T02:48:13.467Z,2.73
2018-08-03T02:50:18.537Z,2.93
2018-08-03T02:52:22.966Z,3.20
2018-08-03T02:54:27.538Z,3.00
2018-08-03T02:56:32.161Z,2.63
2018-08-03T02:58:36.660Z,2.97
2018-08-03T03:00:41.129Z,2.93
2018-08-03T03:02:45.621Z,2.90
2018-08-03T03:04:50.111Z,2.97
2018-08-03T03:06:54.631Z,3.23
2018-08-03T03:08:59.082Z,3.00
2018-08-03T03:11:03.453Z,3.13
2018-08-03T03:13:07.926Z,3.13
2018-08-03T03:15:12.512Z,2.90
2018-08-03T03:17:16.946Z,3.40
2018-08-03T03:19:21.774Z,3.27
2018-08-03T03:21:26.220Z,2.73
2018-08-03T03:23:30.756Z,2.90
2018-08-03T03:25:35.206Z,2.80
2018-08-03T03:27:39.763Z,3.27
2018-08-03T03:29:44.217Z,3.27
2018-08-03T03:31:48.651Z,2.90
2018-08-03T03:33:53.353Z,3.43
2018-08-03T03:35:57.829Z,3.00
2018-08-03T03:38:02.335Z,3.23
2018-08-03T03:40:06.836Z,2.93
2018-08-03T03:42:11.298Z,2.93
2018-08-03T03:44:15.742Z,3.40
2018-08-03T03:46:21.612Z,3.03
2018-08-03T03:48:26.042Z,3.10
2018-08-03T03:50:30.496Z,3.57
2018-08-03T03:52:35.118Z,3.10
2018-08-03T03:54:39.642Z,2.70
2018-08-03T03:56:46.918Z,3.03
2018-08-03T03:58:52.190Z,2.93
2018-08-03T04:00:56.609Z,3.43
2018-08-03T04:03:03.137Z,3.40
2018-08-03T04:05:10.522Z,3.30
2018-08-03T04:07:17.764Z,3.73
2018-08-03T04:09:25.205Z,3.17
2018-08-03T04:11:32.497Z,3.27
2018-08-03T04:13:40.621Z,3.00
2018-08-03T04:15:49.049Z,2.97
2018-08-03T04:17:53.639Z,3.40
2018-08-03T04:19:58.245Z,3.37
2018-08-03T04:22:02.734Z,3.47
2018-08-03T04:24:07.341Z,3.27
2018-08-03T04:26:11.754Z,3.20
2018-08-03T04:28:16.186Z,3.80
2018-08-03T04:30:20.794Z,3.57
2018-08-03T04:32:25.269Z,3.37
2018-08-03T04:34:29.762Z,2.90
2018-08-03T04:36:34.198Z,2.93
2018-08-03T04:38:38.666Z,3.27
2018-08-03T04:40:43.191Z,3.47
2018-08-03T04:42:47.653Z,3.17
2018-08-03T04:44:53.780Z,3.67
2018-08-03T04:46:58.239Z,3.43
2018-08-03T04:49:02.774Z,3.40
2018-08-03T04:51:07.896Z,3.07
2018-08-03T04:53:12.394Z,3.40
2018-08-03T04:55:16.899Z,3.50
2018-08-03T04:57:21.342Z,3.37
2018-08-03T04:59:25.823Z,3.27
2018-08-03T05:01:30.282Z,3.67
2018-08-03T05:03:34.733Z,3.13
2018-08-03T05:05:39.226Z,3.30
2018-08-03T05:07:43.662Z,4.20
2018-08-03T05:09:48.106Z,3.43
2018-08-03T05:11:52.604Z,3.63
2018-08-03T05:13:57.063Z,3.37
2018-08-03T05:16:01.462Z,4.03
2018-08-03T05:18:06.276Z,3.67
2018-08-03T05:20:10.838Z,3.90
2018-08-03T05:22:15.283Z,3.30
2018-08-03T05:24:19.849Z,3.73
2018-08-03T05:26:24.257Z,3.70
2018-08-03T05:28:28.703Z,4.70
2018-08-03T05:30:35.506Z,3.60
2018-08-03T05:32:45.019Z,3.40
2018-08-03T05:34:49.614Z,3.77
2018-08-03T05:36:54.038Z,3.77
2018-08-03T05:38:58.193Z,3.63
2018-08-03T05:41:03.391Z,3.73
2018-08-03T05:43:07.843Z,3.43
2018-08-03T05:45:12.336Z,3.60
2018-08-03T05:47:16.758Z,3.63
2018-08-03T05:49:21.213Z,3.47
2018-08-03T05:51:25.689Z,4.03
2018-08-03T05:53:30.129Z,3.97
2018-08-03T05:55:34.598Z,3.83
2018-08-03T05:57:39.019Z,3.93
2018-08-03T05:59:43.503Z,3.70
2018-08-03T06:01:47.989Z,4.37
2018-08-03T06:03:52.490Z,4.20
2018-08-03T06:05:57.946Z,3.90
2018-08-03T06:08:02.535Z,4.37
2018-08-03T06:10:07.126Z,3.57
2018-08-03T06:12:11.675Z,3.80
2018-08-03T06:14:16.174Z,4.27
2018-08-03T06:16:20.593Z,4.10
2018-08-03T06:18:25.054Z,4.03
2018-08-03T06:20:29.538Z,4.20
2018-08-03T06:22:34.014Z,3.90
2018-08-03T06:24:38.271Z,3.87
2018-08-03T06:26:42.685Z,4.37
2018-08-03T06:28:47.119Z,3.73
2018-08-03T06:30:51.339Z,3.80
2018-08-03T06:32:58.946Z,3.67
2018-08-03T06:35:03.634Z,4.23
2018-08-03T06:37:09.193Z,3.90
2018-08-03T06:39:13.664Z,4.30
2018-08-03T06:41:18.084Z,4.13
2018-08-03T06:43:22.542Z,4.60
2018-08-03T06:45:27.006Z,4.13
2018-08-03T06:47:31.482Z,4.23
2018-08-03T06:49:35.913Z,4.40
2018-08-03T06:51:40.434Z,3.67
2018-08-03T06:53:45.083Z,4.03
2018-08-03T06:55:49.575Z,4.40
2018-08-03T06:57:54.050Z,4.40
2018-08-03T06:59:58.458Z,4.07
2018-08-03T07:02:02.964Z,4.07
2018-08-03T07:04:07.744Z,3.87
2018-08-03T07:06:12.242Z,4.33
2018-08-03T07:08:16.677Z,4.33
2018-08-03T07:10:21.157Z,4.30
2018-08-03T07:12:25.662Z,4.23
2018-08-03T07:14:30.157Z,3.50
2018-08-03T07:16:34.824Z,3.80
2018-08-03T07:18:39.289Z,3.40
2018-08-03T07:20:44.309Z,3.50
2018-08-03T07:22:48.715Z,3.90
2018-08-03T07:24:53.151Z,3.37
2018-08-03T07:26:57.603Z,3.63
2018-08-03T07:29:02.058Z,3.40
2018-08-03T07:31:06.549Z,3.23
2018-08-03T07:33:11.029Z,4.28
2018-08-03T07:35:15.523Z,3.10
2018-08-03T07:37:19.973Z,3.20
2018-08-03T07:39:24.428Z,3.10
2018-08-03T07:41:29.211Z,3.55
2018-08-03T07:43:33.792Z,3.10
2018-08-03T07:45:38.440Z,3.50
2018-08-03T07:47:42.939Z,3.40
2018-08-03T07:49:47.391Z,3.40
2018-08-03T07:51:51.952Z,3.40
2018-08-03T07:53:56.423Z,3.05
2018-08-03T07:56:00.973Z,3.20
2018-08-03T07:58:05.648Z,3.30
2018-08-03T08:00:10.167Z,3.30
2018-08-03T08:02:14.726Z,3.30
2018-08-03T08:04:19.807Z,3.10
2018-08-03T08:06:24.343Z,3.27
2018-08-03T08:08:28.771Z,3.33
2018-08-03T08:10:33.218Z,3.65
2018-08-03T08:12:37.675Z,3.67
2018-08-03T08:14:42.099Z,3.77
2018-08-03T08:16:46.598Z,3.58
2018-08-03T08:18:51.028Z,3.52
2018-08-03T08:20:55.981Z,4.10
2018-08-03T08:23:00.534Z,3.22
2018-08-03T08:25:05.110Z,3.50
2018-08-03T08:27:09.647Z,4.03
2018-08-03T08:29:14.133Z,3.20
2018-08-03T08:31:18.602Z,3.95
2018-08-03T08:33:23.662Z,3.62
2018-08-03T08:35:32.207Z,3.72
2018-08-03T08:37:40.639Z,3.20
2018-08-03T08:39:45.246Z,3.50
2018-08-03T08:41:49.755Z,3.42
2018-08-03T08:43:54.492Z,3.10
2018-08-03T08:45:59.046Z,3.70
2018-08-03T08:48:03.530Z,3.60
2018-08-03T08:50:09.429Z,3.67
2018-08-03T08:52:14.995Z,3.70
2018-08-03T08:54:24.332Z,3.47
2018-08-03T08:56:30.144Z,3.55
2018-08-03T08:58:42.146Z,3.30
2018-08-03T09:00:47.732Z,3.33
2018-08-03T09:02:52.264Z,3.33
2018-08-03T09:04:56.775Z,3.72
2018-08-03T09:07:01.275Z,3.25
2018-08-03T09:09:09.290Z,3.50
2018-08-03T09:11:14.649Z,3.22
2018-08-03T09:13:19.154Z,3.35
2018-08-03T09:15:23.659Z,3.35
2018-08-03T09:17:28.138Z,3.00
2018-08-03T09:19:32.566Z,3.40
2018-08-03T09:21:37.090Z,2.98
2018-08-03T09:23:41.563Z,3.33
2018-08-03T09:25:46.299Z,3.20
2018-08-03T09:27:50.878Z,3.20
2018-08-03T09:29:55.366Z,3.40
2018-08-03T09:31:59.869Z,3.12
2018-08-03T09:34:04.405Z,3.45
2018-08-03T09:36:08.986Z,2.95
2018-08-03T09:38:13.521Z,3.20
2018-08-03T09:40:19.694Z,2.85
2018-08-03T09:42:24.342Z,2.75
2018-08-03T09:44:28.897Z,2.90
2018-08-03T09:46:33.351Z,2.60
2018-08-03T09:48:37.805Z,2.67
2018-08-03T09:50:42.299Z,2.80
2018-08-03T09:52:46.799Z,3.12
2018-08-03T09:54:51.275Z,3.05
2018-08-03T09:56:55.787Z,2.45
2018-08-03T09:59:00.251Z,2.70
2018-08-03T10:01:10.958Z,2.98
2018-08-03T10:03:18.885Z,2.80
2018-08-03T10:05:23.451Z,2.60
2018-08-03T10:07:27.909Z,2.55
2018-08-03T10:09:32.350Z,2.80
2018-08-03T10:11:36.976Z,3.02
2018-08-03T10:13:41.506Z,2.40
2018-08-03T10:15:45.964Z,2.50
2018-08-03T10:17:50.508Z,2.45
2018-08-03T10:19:54.987Z,2.42
2018-08-03T10:21:59.525Z,2.67
2018-08-03T10:24:04.086Z,2.50
2018-08-03T10:26:08.585Z,2.65
2018-08-03T10:28:13.053Z,2.45
2018-08-03T10:30:17.487Z,2.30
2018-08-03T10:32:22.027Z,2.25
2018-08-03T10:34:26.529Z,2.58
2018-08-03T10:36:31.117Z,2.50
2018-08-03T10:38:35.558Z,3.08
2018-08-03T10:40:40.012Z,2.70
2018-08-03T10:42:44.470Z,3.12
2018-08-03T10:44:48.969Z,2.50
2018-08-03T10:46:53.546Z,2.60
2018-08-03T10:48:58.016Z,2.50
2018-08-03T10:51:02.452Z,2.75
2018-08-03T10:53:07.609Z,2.20
2018-08-03T10:55:12.176Z,2.60
2018-08-03T10:57:16.654Z,3.08
2018-08-03T10:59:21.143Z,2.35
2018-08-03T11:01:26.361Z,2.87
2018-08-03T11:03:30.723Z,2.22
2018-08-03T11:05:35.238Z,2.40
2018-08-03T11:07:39.669Z,2.55
2018-08-03T11:09:44.393Z,2.60
2018-08-03T11:11:48.866Z,2.72
2018-08-03T11:13:53.409Z,2.55
2018-08-03T11:15:57.893Z,2.42
2018-08-03T11:18:02.418Z,2.67
2018-08-03T11:20:07.014Z,2.30
2018-08-03T11:22:11.503Z,2.45
2018-08-03T11:24:15.712Z,2.55
2018-08-03T11:26:20.498Z,2.72
2018-08-03T11:28:25.401Z,2.70
2018-08-03T11:30:29.941Z,2.52
2018-08-03T11:32:34.910Z,2.50
2018-08-03T11:34:39.386Z,2.50
2018-08-03T11:36:43.859Z,2.12
2018-08-03T11:38:48.303Z,2.40
2018-08-03T11:40:52.868Z,2.17
2018-08-03T11:42:59.058Z,2.33
2018-08-03T11:45:03.804Z,2.10
2018-08-03T11:47:08.620Z,2.45
2018-08-03T11:49:13.055Z,2.50
2018-08-03T11:51:17.542Z,2.52
2018-08-03T11:53:22.569Z,2.30
2018-08-03T11:55:27.042Z,2.75
2018-08-03T11:57:31.467Z,2.60
2018-08-03T11:59:36.002Z,2.30
2018-08-03T12:01:40.422Z,2.25
2018-08-03T12:03:45.409Z,2.50
2018-08-03T12:05:49.867Z,2.47
2018-08-03T12:07:54.318Z,2.42
2018-08-03T12:09:59.076Z,2.47
2018-08-03T12:12:03.246Z,2.40
2018-08-03T12:14:07.710Z,2.60
2018-08-03T12:16:12.202Z,2.47
2018-08-03T12:18:16.716Z,2.85
2018-08-03T12:20:21.178Z,2.42
2018-08-03T12:22:25.578Z,2.40
2018-08-03T12:24:30.682Z,2.30
2018-08-03T12:26:35.537Z,2.22
2018-08-03T12:28:41.035Z,2.30
2018-08-03T12:30:45.781Z,2.25
2018-08-03T12:32:50.576Z,2.52
2018-08-03T12:34:55.160Z,1.82
2018-08-03T12:36:59.416Z,2.02
2018-08-03T12:39:05.079Z,1.95
2018-08-03T12:41:09.615Z,2.22
2018-08-03T12:43:14.170Z,2.45
2018-08-03T12:45:18.788Z,2.65
2018-08-03T12:47:23.239Z,2.40
2018-08-03T12:49:27.669Z,2.40
2018-08-03T12:51:32.152Z,2.17
2018-08-03T12:53:36.838Z,2.40
2018-08-03T12:55:40.998Z,2.35
2018-08-03T12:57:45.631Z,2.20
2018-08-03T12:59:50.213Z,2.20
2018-08-03T13:01:54.990Z,2.33
2018-08-03T13:03:59.575Z,2.20
2018-08-03T13:06:04.146Z,2.58
2018-08-03T13:08:09.506Z,2.45
2018-08-03T13:10:13.995Z,2.37
2018-08-03T13:12:18.395Z,2.70
2018-08-03T13:14:23.060Z,2.22
2018-08-03T13:16:27.562Z,2.40
2018-08-03T13:18:32.241Z,2.60
2018-08-03T13:20:37.394Z,2.20
2018-08-03T13:22:42.612Z,2.40
2018-08-03T13:24:47.133Z,2.33
2018-08-03T13:26:51.628Z,2.37
2018-08-03T13:28:56.293Z,2.55
2018-08-03T13:31:00.742Z,2.02
2018-08-03T13:33:05.221Z,2.45
2018-08-03T13:35:09.695Z,2.60
2018-08-03T13:37:14.500Z,2.58
2018-08-03T13:39:18.978Z,2.40
2018-08-03T13:41:23.526Z,2.40
2018-08-03T13:43:27.964Z,2.22
2018-08-03T13:45:32.479Z,2.08
2018-08-03T13:47:37.019Z,2.10
2018-08-03T13:49:41.547Z,2.30
2018-08-03T13:51:46.017Z,2.42
2018-08-03T13:53:50.451Z,2.50
2018-08-03T13:55:55.279Z,2.60
2018-08-03T13:57:59.741Z,2.05
2018-08-03T14:00:05.240Z,2.70
2018-08-03T14:02:22.507Z,2.40
2018-08-03T14:04:27.147Z,2.58
2018-08-03T14:06:31.678Z,2.37
2018-08-03T14:08:36.317Z,2.40
2018-08-03T14:10:41.020Z,2.00
2018-08-03T14:12:45.552Z,2.40
2018-08-03T14:14:50.011Z,2.55
2018-08-03T14:16:54.534Z,2.67
2018-08-03T14:18:58.969Z,2.42
2018-08-03T14:21:03.462Z,2.65
2018-08-03T14:23:07.955Z,2.47
2018-08-03T14:25:12.391Z,2.45
2018-08-03T14:27:16.901Z,2.75
2018-08-03T14:29:21.346Z,2.10
2018-08-03T14:31:25.930Z,2.35
2018-08-03T14:33:30.773Z,2.40
2018-08-03T14:35:35.293Z,2.70
2018-08-03T14:37:39.988Z,2.50
2018-08-03T14:39:44.478Z,2.70
2018-08-03T14:41:49.479Z,2.30
2018-08-03T14:43:54.043Z,2.27
2018-08-03T14:45:58.722Z,3.08
2018-08-03T14:48:03.236Z,2.55
2018-08-03T14:50:07.917Z,2.65
2018-08-03T14:52:12.413Z,2.40
2018-08-03T14:54:16.921Z,2.40
2018-08-03T14:56:21.414Z,2.37
2018-08-03T14:58:25.855Z,2.70
2018-08-03T15:00:30.262Z,2.10
2018-08-03T15:02:34.967Z,2.58
2018-08-03T15:04:39.678Z,2.62
2018-08-03T15:06:44.528Z,2.40
2018-08-03T15:08:49.007Z,2.58
2018-08-03T15:10:53.442Z,2.10
2018-08-03T15:12:57.957Z,2.70
2018-08-03T15:15:02.446Z,2.55
2018-08-03T15:17:07.433Z,2.50
2018-08-03T15:19:12.279Z,2.75
2018-08-03T15:21:17.218Z,2.47
2018-08-03T15:23:21.743Z,3.20
2018-08-03T15:25:26.446Z,2.52
2018-08-03T15:27:30.897Z,2.90
2018-08-03T15:29:35.326Z,2.67
2018-08-03T15:31:40.026Z,2.65
2018-08-03T15:33:45.217Z,2.40
2018-08-03T15:35:49.727Z,2.33
2018-08-03T15:37:54.327Z,2.45
2018-08-03T15:39:58.849Z,2.65
2018-08-03T15:42:03.405Z,2.42
2018-08-03T15:44:07.880Z,2.35
2018-08-03T15:46:12.339Z,2.77
2018-08-03T15:48:16.830Z,2.58
2018-08-03T15:50:21.400Z,2.90
2018-08-03T15:52:26.060Z,2.30
2018-08-03T15:54:30.494Z,2.37
2018-08-03T15:56:34.911Z,2.75
2018-08-03T15:58:39.541Z,2.70
2018-08-03T16:00:44.123Z,3.05
2018-08-03T16:02:49.175Z,2.60
2018-08-03T16:04:54.401Z,2.67
2018-08-03T16:07:00.595Z,2.85
2018-08-03T16:09:07.924Z,2.33
2018-08-03T16:11:12.382Z,2.70
2018-08-03T16:13:16.841Z,2.65
2018-08-03T16:15:21.154Z,2.58
2018-08-03T16:17:25.743Z,3.08
2018-08-03T16:19:30.213Z,2.50
2018-08-03T16:21:35.605Z,2.70
2018-08-03T16:23:40.382Z,2.65
2018-08-03T16:25:44.945Z,2.30
2018-08-03T16:27:49.475Z,2.77
2018-08-03T16:29:53.937Z,2.45
2018-08-03T16:31:58.452Z,2.52
2018-08-03T16:34:02.936Z,2.50
2018-08-03T16:36:07.427Z,2.77
2018-08-03T16:38:11.902Z,2.47
2018-08-03T16:40:16.442Z,2.87
2018-08-03T16:42:22.337Z,2.20
2018-08-03T16:44:27.520Z,2.62
2018-08-03T16:46:32.060Z,2.75
2018-08-03T16:48:36.887Z,2.58
2018-08-03T16:50:41.440Z,2.47
2018-08-03T16:52:46.501Z,2.77
2018-08-03T16:54:51.642Z,2.90
2018-08-03T16:56:56.065Z,2.85
2018-08-03T16:59:00.740Z,2.75
2018-08-03T17:01:05.241Z,2.75
2018-08-03T17:03:10.508Z,3.42
2018-08-03T17:05:14.936Z,2.92
2018-08-03T17:07:19.371Z,2.70
2018-08-03T17:09:23.905Z,3.10
2018-08-03T17:11:28.442Z,2.50
2018-08-03T17:13:32.980Z,3.33
2018-08-03T17:15:37.493Z,3.83
2018-08-03T17:17:42.021Z,3.22
2018-08-03T17:19:46.496Z,3.20
2018-08-03T17:21:50.944Z,3.40
2018-08-03T17:23:55.504Z,3.30
2018-08-03T17:25:59.955Z,2.52
2018-08-03T17:28:04.522Z,2.80
2018-08-03T17:30:09.094Z,2.83
2018-08-03T17:32:13.585Z,2.90
2018-08-03T17:34:19.853Z,3.00
2018-08-03T17:36:24.683Z,3.10
2018-08-03T17:38:29.226Z,3.00
2018-08-03T17:40:33.737Z,2.77
2018-08-03T17:42:38.946Z,2.85
2018-08-03T17:44:43.465Z,3.05
2018-08-03T17:46:47.891Z,2.83
2018-08-03T17:48:52.834Z,3.17
2018-08-03T17:50:57.346Z,3.35
2018-08-03T17:53:01.848Z,3.30
2018-08-03T17:55:06.733Z,3.12
2018-08-03T17:57:11.269Z,3.15
2018-08-03T17:59:15.726Z,3.27
2018-08-03T18:01:19.917Z,2.50
2018-08-03T18:03:24.626Z,2.85
2018-08-03T18:05:29.073Z,3.20
2018-08-03T18:07:33.600Z,2.98
2018-08-03T18:09:38.135Z,2.77
2018-08-03T18:11:42.635Z,3.08
2018-08-03T18:13:46.835Z,2.90
2018-08-03T18:15:51.423Z,2.87
2018-08-03T18:17:55.867Z,2.98
2018-08-03T18:20:00.348Z,2.85
2018-08-03T18:22:04.846Z,3.60
2018-08-03T18:24:09.411Z,3.02
2018-08-03T18:26:13.870Z,3.00
2018-08-03T18:28:18.351Z,2.92
2018-08-03T18:30:22.867Z,3.37
2018-08-03T18:32:27.382Z,3.02
2018-08-03T18:34:33.511Z,3.30
2018-08-03T18:36:37.965Z,2.92
2018-08-03T18:38:42.430Z,3.33
2018-08-03T18:40:46.883Z,3.52
2018-08-03T18:42:51.473Z,3.12
2018-08-03T18:44:56.015Z,3.37
2018-08-03T18:47:00.514Z,3.00
2018-08-03T18:49:05.231Z,3.08
2018-08-03T18:51:09.904Z,3.22
2018-08-03T18:53:14.069Z,2.98
2018-08-03T18:55:18.636Z,2.80
2018-08-03T18:57:24.037Z,2.92
2018-08-03T18:59:28.538Z,3.15
2018-08-03T19:01:33.007Z,3.22
2018-08-03T19:03:37.467Z,2.98
2018-08-03T19:05:41.910Z,3.05
2018-08-03T19:07:46.445Z,3.17
2018-08-03T19:09:51.651Z,3.40
2018-08-03T19:11:56.155Z,3.25
2018-08-03T19:14:00.622Z,3.08
2018-08-03T19:16:05.088Z,3.02
2018-08-03T19:18:09.610Z,3.20
2018-08-03T19:20:14.879Z,3.85
2018-08-03T19:22:19.887Z,3.47
2018-08-03T19:24:26.486Z,3.98
2018-08-03T19:26:31.625Z,3.92
2018-08-03T19:28:40.190Z,3.60
2018-08-03T19:30:45.492Z,4.97
2018-08-03T19:32:50.562Z,5.58
2018-08-03T19:34:55.465Z,6.12
2018-08-03T19:37:00.782Z,6.37
2018-08-03T19:39:08.557Z,5.78
2018-08-03T19:41:14.343Z,5.70
2018-08-03T19:43:19.776Z,4.90
2018-08-03T19:45:24.203Z,4.95
2018-08-03T19:47:29.767Z,4.70
2018-08-03T19:49:35.014Z,4.37
2018-08-03T19:51:39.549Z,4.50
2018-08-03T19:53:43.986Z,4.15
2018-08-03T19:55:48.985Z,4.10
2018-08-03T19:57:53.571Z,3.92
2018-08-03T19:59:58.022Z,3.52
2018-08-03T20:02:02.737Z,4.10
2018-08-03T20:04:12.410Z,3.55
2018-08-03T20:06:16.854Z,3.47
2018-08-03T20:08:21.335Z,3.47
2018-08-03T20:10:26.257Z,3.30
2018-08-03T20:12:30.708Z,4.00
2018-08-03T20:14:35.277Z,3.95
2018-08-03T20:16:40.234Z,4.17
2018-08-03T20:18:44.751Z,3.60
2018-08-03T20:20:49.246Z,4.22
2018-08-03T20:22:53.691Z,3.60
2018-08-03T20:24:58.688Z,4.15
2018-08-03T20:27:03.461Z,4.00
2018-08-03T20:29:08.074Z,3.77
2018-08-03T20:31:12.597Z,4.00
2018-08-03T20:33:17.038Z,3.97
2018-08-03T20:35:21.551Z,4.33
2018-08-03T20:37:26.479Z,4.13
2018-08-03T20:39:31.202Z,3.50
2018-08-03T20:41:35.883Z,4.27
2018-08-03T20:43:40.434Z,3.85
2018-08-03T20:45:44.989Z,3.67
2018-08-03T20:47:49.617Z,3.92
2018-08-03T20:49:54.130Z,4.00
2018-08-03T20:51:58.627Z,4.10
2018-08-03T20:54:03.091Z,3.50
2018-08-03T20:56:07.610Z,3.67
2018-08-03T20:58:12.046Z,3.50
2018-08-03T21:00:17.286Z,4.00
2018-08-03T21:02:21.744Z,4.27
2018-08-03T21:04:26.319Z,3.80
2018-08-03T21:06:30.692Z,3.55
2018-08-03T21:08:35.254Z,4.20
2018-08-03T21:10:40.296Z,4.43
2018-08-03T21:12:44.775Z,3.60
2018-08-03T21:14:49.196Z,3.73
2018-08-03T21:16:53.631Z,4.10
2018-08-03T21:18:58.050Z,4.03
2018-08-03T21:21:02.593Z,3.87
2018-08-03T21:23:07.618Z,4.30
2018-08-03T21:25:12.062Z,4.47
2018-08-03T21:27:16.576Z,4.13
2018-08-03T21:29:21.048Z,3.90
2018-08-03T21:31:26.314Z,4.13
2018-08-03T21:33:30.926Z,4.17
2018-08-03T21:35:35.650Z,4.50
2018-08-03T21:37:40.701Z,4.13
2018-08-03T21:39:45.165Z,4.47
2018-08-03T21:41:55.294Z,4.47
2018-08-03T21:44:00.044Z,4.73
2018-08-03T21:46:04.502Z,4.67
2018-08-03T21:48:09.026Z,4.67
2018-08-03T21:50:14.177Z,5.03
2018-08-03T21:52:18.638Z,4.60
2018-08-03T21:54:23.155Z,5.17
2018-08-03T21:56:27.401Z,4.83
2018-08-03T21:58:31.846Z,4.70
2018-08-03T22:00:36.351Z,4.87
2018-08-03T22:02:40.757Z,4.70
2018-08-03T22:04:45.255Z,4.80
2018-08-03T22:06:49.958Z,4.40
2018-08-03T22:08:54.420Z,4.43
2018-08-03T22:10:59.489Z,4.20
2018-08-03T22:13:04.644Z,4.63
2018-08-03T22:15:09.186Z,4.97
2018-08-03T22:17:13.905Z,4.70
2018-08-03T22:19:18.468Z,4.70
2018-08-03T22:21:22.927Z,4.63
2018-08-03T22:23:27.845Z,4.57
2018-08-03T22:25:32.548Z,5.40
2018-08-03T22:27:37.123Z,4.67
2018-08-03T22:29:42.049Z,4.33
2018-08-03T22:31:47.044Z,4.20
2018-08-03T22:33:51.882Z,4.60
2018-08-03T22:35:56.579Z,4.50
2018-08-03T22:38:01.002Z,4.60
2018-08-03T22:40:05.907Z,4.23
2018-08-03T22:42:10.410Z,4.90
2018-08-03T22:44:14.842Z,4.80
2018-08-03T22:46:19.312Z,4.23
2018-08-03T22:48:24.049Z,4.50
2018-08-03T22:50:28.272Z,4.63
2018-08-03T22:52:35.498Z,5.30
2018-08-03T22:54:40.430Z,4.57
2018-08-03T22:56:46.770Z,4.10
2018-08-03T22:58:52.625Z,4.73
2018-08-03T23:00:57.143Z,4.17
2018-08-03T23:03:01.755Z,4.33
2018-08-03T23:05:06.323Z,4.40
2018-08-03T23:07:10.968Z,4.40
2018-08-03T23:09:15.937Z,4.37
2018-08-03T23:11:20.413Z,4.53
2018-08-03T23:13:25.073Z,4.40
2018-08-03T23:15:33.023Z,4.53
2018-08-03T23:17:38.007Z,4.20
2018-08-03T23:19:42.471Z,4.23
2018-08-03T23:21:46.932Z,4.60
2018-08-03T23:23:51.984Z,4.13
2018-08-03T23:25:56.589Z,4.20
2018-08-03T23:28:01.177Z,4.40
2018-08-03T23:30:08.234Z,4.30
2018-08-03T23:32:12.791Z,3.97
2018-08-03T23:34:17.251Z,4.20
2018-08-03T23:36:21.787Z,4.17
2018-08-03T23:38:26.813Z,4.80
2018-08-03T23:40:31.454Z,4.40
2018-08-03T23:42:36.789Z,3.80
2018-08-03T23:44:41.229Z,3.93
2018-08-03T23:46:45.735Z,4.40
2018-08-03T23:48:50.219Z,4.47
2018-08-03T23:50:54.871Z,4.07
2018-08-03T23:52:59.410Z,4.10
2018-08-03T23:55:04.643Z,4.00
2018-08-03T23:57:09.477Z,4.60
2018-08-03T23:59:13.914Z,4.23
